Buxhansa — A8TQ5 — position and weather

sailwx.info

Track history (hours):
 
Tides and Currents Weather Stations Pressure Air Temp Water Temp Dewpoint Dewpoint Depression Visibility Wind Speed Wind Dir Waves Ship Positions

Buxhansa

Last reported at 2016-May-27 19:13 UTC. Time now 2016-Jun-30 16:02 UTC.
Position N 01°54' E 102°23'.
Warning: this ship's position is 33 days out of date.

Length 208 m; draft 9.1 m.

Type: Ship. MMSI: 636091849.

Date/timePositionNaut miles runAvg speedWind from/ knotsBaromVisibWave heightAir tempDewpointWater temp
2016-May-27 19:13N 01°54' E 102°23'913.5
2016-May-27 18:33N 01°50' E 102°31'68 1.4
2016-May-25 18:30N 01°21' E 103°33'12 0.3
2016-May-24 00:34N 01°14' E 103°42'5 4.4
2016-May-23 23:32N 01°16' E 103°47'0 0.0
2016-May-23 21:32N 01°16' E 103°47'0 0.0
2016-May-23 20:32N 01°16' E 103°47'0 0.0
2016-May-23 19:28N 01°16' E 103°47'0 0.0
2016-May-23 17:24N 01°16' E 103°47'0 0.0
2016-May-23 16:24N 01°16' E 103°47'0 0.0
2016-May-23 15:26N 01°16' E 103°47'0 0.2
2016-May-23 14:34N 01°16' E 103°47'8 7.8
2016-May-23 13:33N 01°14' E 103°54'7 6.6
2016-May-23 12:31N 01°16' E 104°01'  
Track history (hours):
 
Tides and Currents Weather Stations Pressure Air Temp Water Temp Dewpoint Dewpoint Depression Visibility Wind Speed Wind Dir Waves Ship Positions

Buxhansa

Last reported at 2016-May-27 19:13 UTC. Time now 2016-Jun-30 16:03 UTC.
Position N 01°54' E 102°23'.
Warning: this ship's position is 33 days out of date.

Length 208 m; draft 9.1 m.

Type: Ship. MMSI: 636091849.

Date/timePositionNaut miles runAvg speedWind from/ knotsBaromVisibWave heightAir tempDewpointWater temp
2016-May-27 19:13N 01°54' E 102°23'913.5
2016-May-27 18:33N 01°50' E 102°31'68 1.4
2016-May-25 18:30N 01°21' E 103°33'12 0.3
2016-May-24 00:34N 01°14' E 103°42'5 4.4
2016-May-23 23:32N 01°16' E 103°47'0 0.0
2016-May-23 21:32N 01°16' E 103°47'0 0.0
2016-May-23 20:32N 01°16' E 103°47'0 0.0
2016-May-23 19:28N 01°16' E 103°47'0 0.0
2016-May-23 17:24N 01°16' E 103°47'0 0.0
2016-May-23 16:24N 01°16' E 103°47'0 0.0
2016-May-23 15:26N 01°16' E 103°47'0 0.2
2016-May-23 14:34N 01°16' E 103°47'8 7.8
2016-May-23 13:33N 01°14' E 103°54'7 6.6
2016-May-23 12:31N 01°16' E 104°01'  

Dump ship's entire track history